createdAt,value
2022-08-01T00:00:02.279Z,0
2022-08-01T00:00:22.348Z,0
2022-08-01T00:00:42.490Z,0
2022-08-01T00:01:02.500Z,0
2022-08-01T00:01:22.546Z,0
2022-08-01T00:01:42.616Z,0
2022-08-01T00:02:02.948Z,0
2022-08-01T00:02:22.828Z,0
2022-08-01T00:02:42.857Z,0
2022-08-01T00:03:02.866Z,0
2022-08-01T00:03:22.913Z,0
2022-08-01T00:03:43.001Z,0
2022-08-01T00:04:03.070Z,0
2022-08-01T00:04:23.153Z,0
2022-08-01T00:04:43.237Z,0
2022-08-01T00:05:03.303Z,0
2022-08-01T00:05:23.351Z,0
2022-08-01T00:05:43.553Z,0
2022-08-01T00:06:03.483Z,0
2022-08-01T00:06:23.561Z,0
2022-08-01T00:06:43.636Z,0
2022-08-01T00:07:03.693Z,0
2022-08-01T00:07:23.749Z,0
2022-08-01T00:07:43.825Z,0
2022-08-01T00:08:03.886Z,0
2022-08-01T00:08:23.942Z,0
2022-08-01T00:08:44.010Z,0
2022-08-01T00:09:04.072Z,0
2022-08-01T00:09:24.589Z,0
2022-08-01T00:09:44.179Z,0
2022-08-01T00:10:04.263Z,0
2022-08-01T00:10:24.344Z,0
2022-08-01T00:10:44.464Z,0
2022-08-01T00:11:04.474Z,0
2022-08-01T00:11:24.540Z,0
2022-08-01T00:11:44.607Z,0
2022-08-01T00:12:04.644Z,0
2022-08-01T00:12:24.729Z,0
2022-08-01T00:12:44.800Z,0
2022-08-01T00:13:04.882Z,0
2022-08-01T00:13:24.933Z,0
2022-08-01T00:13:45.014Z,0
2022-08-01T00:14:05.093Z,0
2022-08-01T00:14:32.305Z,0
2022-08-01T00:14:45.202Z,0
2022-08-01T00:15:05.268Z,0
2022-08-01T00:15:25.333Z,0
2022-08-01T00:15:53.924Z,0
2022-08-01T00:16:05.443Z,0
2022-08-01T00:16:25.493Z,0
2022-08-01T00:16:45.563Z,0
2022-08-01T00:17:07.542Z,0
2022-08-01T00:17:25.705Z,0
2022-08-01T00:17:45.776Z,0
2022-08-01T00:18:05.860Z,0
2022-08-01T00:18:25.949Z,0
2022-08-01T00:18:46.037Z,0
2022-08-01T00:19:06.099Z,0
2022-08-01T00:19:26.164Z,0
2022-08-01T00:19:46.223Z,0
2022-08-01T00:20:06.275Z,0
2022-08-01T00:20:26.338Z,0
2022-08-01T00:20:46.481Z,0
2022-08-01T00:21:06.484Z,0
2022-08-01T00:21:26.545Z,0
2022-08-01T00:21:52.189Z,0
2022-08-01T00:22:07.069Z,0
2022-08-01T00:22:26.739Z,0
2022-08-01T00:22:46.805Z,0
2022-08-01T00:23:06.885Z,0
2022-08-01T00:23:26.936Z,0
2022-08-01T00:23:46.997Z,0
2022-08-01T00:24:07.045Z,0
2022-08-01T00:24:27.095Z,0
2022-08-01T00:24:47.182Z,0
2022-08-01T00:25:07.267Z,0
2022-08-01T00:25:33.662Z,0
2022-08-01T00:25:47.487Z,0
2022-08-01T00:26:07.441Z,0
2022-08-01T00:26:27.499Z,0
2022-08-01T00:26:47.593Z,0
2022-08-01T00:27:07.676Z,0
2022-08-01T00:27:27.709Z,0
2022-08-01T00:27:47.768Z,0
2022-08-01T00:28:07.845Z,0
2022-08-01T00:28:27.893Z,0
2022-08-01T00:28:47.957Z,0
2022-08-01T00:29:13.218Z,0
2022-08-01T00:30:09.874Z,0
2022-08-01T00:30:11.574Z,0
2022-08-01T00:30:11.580Z,0
2022-08-01T00:30:28.317Z,0
2022-08-01T00:30:48.449Z,0
2022-08-01T00:31:08.404Z,0
2022-08-01T00:31:28.503Z,0
2022-08-01T00:31:48.562Z,0
2022-08-01T00:32:09.100Z,0
2022-08-01T00:32:28.686Z,0
2022-08-01T00:32:48.736Z,0
2022-08-01T00:33:08.784Z,0
2022-08-01T00:33:28.857Z,0
2022-08-01T00:33:48.917Z,0
2022-08-01T00:34:08.996Z,0
2022-08-01T00:34:29.047Z,0
2022-08-01T00:34:49.114Z,0
2022-08-01T00:35:09.179Z,0
2022-08-01T00:35:29.247Z,0
2022-08-01T00:35:49.374Z,0
2022-08-01T00:36:09.381Z,0
2022-08-01T00:36:29.408Z,0
2022-08-01T00:36:49.467Z,0
2022-08-01T00:37:09.536Z,0
2022-08-01T00:37:29.587Z,0
2022-08-01T00:37:49.646Z,0
2022-08-01T00:38:09.686Z,0
2022-08-01T00:38:29.768Z,0
2022-08-01T00:38:49.861Z,0
2022-08-01T00:39:09.904Z,0
2022-08-01T00:39:29.981Z,0
2022-08-01T00:39:50.050Z,0
2022-08-01T00:40:10.097Z,0
2022-08-01T00:40:30.166Z,0
2022-08-01T00:40:50.330Z,0
2022-08-01T00:41:10.316Z,0
2022-08-01T00:41:30.413Z,0
2022-08-01T00:41:50.500Z,0
2022-08-01T00:42:10.569Z,0
2022-08-01T00:42:30.614Z,0
2022-08-01T00:42:50.675Z,0
2022-08-01T00:43:10.783Z,0
2022-08-01T00:43:30.857Z,0
2022-08-01T00:43:50.910Z,0
2022-08-01T00:44:10.983Z,0
2022-08-01T00:44:31.036Z,0
2022-08-01T00:44:51.119Z,0
2022-08-01T00:45:11.151Z,0
2022-08-01T00:45:31.210Z,0
2022-08-01T00:45:51.348Z,0
2022-08-01T00:46:11.342Z,0
2022-08-01T00:46:31.433Z,0
2022-08-01T00:46:51.478Z,0
2022-08-01T00:47:11.551Z,0
2022-08-01T00:47:31.629Z,0
2022-08-01T00:47:55.236Z,0
2022-08-01T00:48:11.741Z,0
2022-08-01T00:48:31.806Z,0
2022-08-01T00:48:51.879Z,0
2022-08-01T00:49:12.012Z,0
2022-08-01T00:49:32.080Z,0
2022-08-01T00:49:52.068Z,0
2022-08-01T00:50:12.136Z,0
2022-08-01T00:50:32.231Z,0
2022-08-01T00:50:52.351Z,0
2022-08-01T00:51:12.338Z,0
2022-08-01T00:51:32.390Z,0
2022-08-01T00:51:52.454Z,0
2022-08-01T00:52:12.496Z,0
2022-08-01T00:52:32.592Z,0
2022-08-01T00:52:52.681Z,0
2022-08-01T00:53:18.701Z,0
2022-08-01T00:53:50.743Z,0
2022-08-01T00:53:52.867Z,0
2022-08-01T00:54:13.217Z,0
2022-08-01T00:54:32.998Z,0
2022-08-01T00:54:53.048Z,0
2022-08-01T00:55:15.128Z,0
2022-08-01T00:55:33.174Z,0
2022-08-01T00:55:53.292Z,0
2022-08-01T00:56:13.292Z,0
2022-08-01T00:56:33.377Z,0
2022-08-01T00:56:53.417Z,0
2022-08-01T00:57:15.135Z,0
2022-08-01T00:58:02.549Z,0
2022-08-01T00:58:02.783Z,0
2022-08-01T00:58:13.722Z,0
2022-08-01T00:58:33.804Z,0
2022-08-01T00:58:53.891Z,0
2022-08-01T00:59:14.129Z,0
2022-08-01T00:59:34.087Z,0
2022-08-01T00:59:54.147Z,0
2022-08-01T01:00:14.213Z,0
2022-08-01T01:00:34.913Z,0
2022-08-01T01:00:54.676Z,0
2022-08-01T01:01:14.537Z,0
2022-08-01T01:01:39.573Z,0
2022-08-01T01:01:54.597Z,0
2022-08-01T01:02:15.605Z,0
2022-08-01T01:02:34.704Z,0
2022-08-01T01:02:54.818Z,0
2022-08-01T01:03:14.879Z,0
2022-08-01T01:03:57.470Z,0
2022-08-01T01:03:59.752Z,0
2022-08-01T01:04:15.112Z,0
2022-08-01T01:04:35.185Z,0
2022-08-01T01:04:55.284Z,0
2022-08-01T01:05:15.340Z,0
2022-08-01T01:05:37.513Z,0
2022-08-01T01:05:55.530Z,0
2022-08-01T01:06:15.524Z,0
2022-08-01T01:06:35.600Z,0
2022-08-01T01:06:55.639Z,0
2022-08-01T01:07:15.736Z,0
2022-08-01T01:07:35.818Z,0
2022-08-01T01:07:55.905Z,0
2022-08-01T01:08:15.973Z,0
2022-08-01T01:08:36.041Z,0
2022-08-01T01:08:56.119Z,0
2022-08-01T01:09:16.178Z,0
2022-08-01T01:09:36.261Z,0
2022-08-01T01:09:56.336Z,0
2022-08-01T01:10:16.386Z,0
2022-08-01T01:10:36.447Z,0
2022-08-01T01:10:56.605Z,0
2022-08-01T01:11:16.606Z,0
2022-08-01T01:11:36.650Z,0
2022-08-01T01:11:56.739Z,0
2022-08-01T01:12:16.835Z,0
2022-08-01T01:12:38.672Z,0
2022-08-01T01:12:57.006Z,0
2022-08-01T01:13:17.072Z,0
2022-08-01T01:13:37.178Z,0
2022-08-01T01:13:57.221Z,0
2022-08-01T01:14:17.282Z,0
2022-08-01T01:14:37.373Z,0
2022-08-01T01:14:57.457Z,0
2022-08-01T01:15:17.518Z,0
2022-08-01T01:15:37.600Z,0
2022-08-01T01:15:57.751Z,0
2022-08-01T01:16:17.761Z,0
2022-08-01T01:16:37.831Z,0
2022-08-01T01:16:57.928Z,0
2022-08-01T01:17:17.989Z,0
2022-08-01T01:17:50.530Z,0
2022-08-01T01:17:58.129Z,0
2022-08-01T01:18:18.204Z,0
2022-08-01T01:18:38.267Z,0
2022-08-01T01:18:58.329Z,0
2022-08-01T01:19:18.388Z,0
2022-08-01T01:19:38.452Z,0
2022-08-01T01:19:58.544Z,0
2022-08-01T01:20:18.573Z,0
2022-08-01T01:20:38.644Z,0
2022-08-01T01:20:58.805Z,0
2022-08-01T01:21:18.785Z,0
2022-08-01T01:21:38.864Z,0
2022-08-01T01:21:58.946Z,0
2022-08-01T01:22:18.980Z,0
2022-08-01T01:22:39.074Z,0
2022-08-01T01:22:59.166Z,0
2022-08-01T01:23:19.199Z,0
2022-08-01T01:23:39.265Z,0
2022-08-01T01:23:59.307Z,0
2022-08-01T01:24:19.345Z,0
2022-08-01T01:24:39.428Z,0
2022-08-01T01:24:59.517Z,0
2022-08-01T01:25:19.585Z,0
2022-08-01T01:25:39.671Z,0
2022-08-01T01:25:59.808Z,0
2022-08-01T01:26:19.852Z,0
2022-08-01T01:26:39.905Z,0
2022-08-01T01:27:00.009Z,0
2022-08-01T01:27:20.082Z,0
2022-08-01T01:27:40.156Z,0
2022-08-01T01:28:00.253Z,0
2022-08-01T01:28:20.342Z,0
2022-08-01T01:28:40.381Z,0
2022-08-01T01:29:00.460Z,0
2022-08-01T01:29:20.515Z,0
2022-08-01T01:30:00.192Z,0
2022-08-01T01:30:01.280Z,0
2022-08-01T01:30:20.701Z,0
2022-08-01T01:30:40.774Z,0
2022-08-01T01:31:00.960Z,0
2022-08-01T01:31:20.932Z,0
2022-08-01T01:31:41.011Z,0
2022-08-01T01:32:01.083Z,0
2022-08-01T01:32:21.165Z,0
2022-08-01T01:32:41.238Z,0
2022-08-01T01:33:01.315Z,0
2022-08-01T01:33:21.379Z,0
2022-08-01T01:33:45.146Z,0
2022-08-01T01:34:01.515Z,0
2022-08-01T01:34:21.560Z,0
2022-08-01T01:34:41.623Z,0
2022-08-01T01:35:01.720Z,0
2022-08-01T01:35:21.814Z,0
2022-08-01T01:35:41.880Z,0
2022-08-01T01:36:02.059Z,0
2022-08-01T01:36:22.042Z,0
2022-08-01T01:36:42.102Z,0
2022-08-01T01:37:02.191Z,0
2022-08-01T01:37:22.267Z,0
2022-08-01T01:37:42.352Z,0
2022-08-01T01:38:02.467Z,0
2022-08-01T01:38:22.537Z,0
2022-08-01T01:38:42.597Z,0
2022-08-01T01:39:02.675Z,0
2022-08-01T01:39:22.722Z,0
2022-08-01T01:39:45.259Z,0
2022-08-01T01:40:02.866Z,0
2022-08-01T01:40:22.912Z,0
2022-08-01T01:40:42.967Z,0
2022-08-01T01:41:03.107Z,0
2022-08-01T01:41:23.112Z,0
2022-08-01T01:41:43.184Z,0
2022-08-01T01:42:03.723Z,0
2022-08-01T01:42:23.317Z,0
2022-08-01T01:42:43.414Z,0
2022-08-01T01:43:03.494Z,0
2022-08-01T01:43:29.095Z,0
2022-08-01T01:43:43.668Z,0
2022-08-01T01:44:03.731Z,0
2022-08-01T01:44:23.823Z,0
2022-08-01T01:44:43.895Z,0
2022-08-01T01:45:03.964Z,0
2022-08-01T01:45:24.046Z,0
2022-08-01T01:45:44.123Z,0
2022-08-01T01:46:04.263Z,0
2022-08-01T01:46:24.268Z,0
2022-08-01T01:46:44.320Z,0
2022-08-01T01:47:04.408Z,0
2022-08-01T01:47:24.495Z,0
2022-08-01T01:47:44.539Z,0
2022-08-01T01:48:04.604Z,0
2022-08-01T01:48:24.665Z,0
2022-08-01T01:48:44.742Z,0
2022-08-01T01:49:04.875Z,0
2022-08-01T01:49:24.917Z,0
2022-08-01T01:49:44.923Z,0
2022-08-01T01:50:04.969Z,0
2022-08-01T01:50:25.035Z,0
2022-08-01T01:50:45.115Z,0
2022-08-01T01:51:05.295Z,0
2022-08-01T01:51:25.270Z,0
2022-08-01T01:51:49.365Z,0
2022-08-01T01:52:05.711Z,0
2022-08-01T01:52:25.470Z,0
2022-08-01T01:52:45.554Z,0
2022-08-01T01:53:05.624Z,0
2022-08-01T01:53:25.698Z,0
2022-08-01T01:53:45.805Z,0
2022-08-01T01:54:05.875Z,0
2022-08-01T01:54:25.954Z,0
2022-08-01T01:54:46.055Z,0
2022-08-01T01:55:06.108Z,0
2022-08-01T01:55:26.198Z,0
2022-08-01T01:55:49.827Z,0
2022-08-01T01:56:06.425Z,0
2022-08-01T01:56:26.409Z,0
2022-08-01T01:56:46.486Z,0
2022-08-01T01:57:06.541Z,0
2022-08-01T01:57:26.597Z,0
2022-08-01T01:57:46.691Z,0
2022-08-01T01:58:06.735Z,0
2022-08-01T01:58:26.809Z,0
2022-08-01T01:58:46.885Z,0
2022-08-01T01:59:06.940Z,0
2022-08-01T01:59:26.991Z,0
2022-08-01T01:59:47.053Z,0
2022-08-01T02:00:07.121Z,0
2022-08-01T02:00:27.225Z,0
2022-08-01T02:00:47.312Z,0
2022-08-01T02:01:14.545Z,0
2022-08-01T02:01:58.683Z,0
2022-08-01T02:02:04.971Z,0
2022-08-01T02:02:07.715Z,0
2022-08-01T02:02:27.738Z,0
2022-08-01T02:02:47.843Z,0
2022-08-01T02:03:07.922Z,0
2022-08-01T02:03:27.913Z,0
2022-08-01T02:03:47.978Z,0
2022-08-01T02:04:08.081Z,0
2022-08-01T02:04:28.154Z,0
2022-08-01T02:04:48.212Z,0
2022-08-01T02:05:08.291Z,0
2022-08-01T02:05:28.394Z,0
2022-08-01T02:05:48.438Z,0
2022-08-01T02:06:08.603Z,0
2022-08-01T02:06:28.605Z,0
2022-08-01T02:06:48.698Z,0
2022-08-01T02:07:08.773Z,0
2022-08-01T02:07:28.846Z,0
2022-08-01T02:07:48.900Z,0
2022-08-01T02:08:08.979Z,0
2022-08-01T02:08:29.067Z,0
2022-08-01T02:08:49.130Z,0
2022-08-01T02:09:09.191Z,0
2022-08-01T02:09:29.272Z,0
2022-08-01T02:09:49.357Z,0
2022-08-01T02:10:09.425Z,0
2022-08-01T02:10:29.515Z,0
2022-08-01T02:10:49.576Z,0
2022-08-01T02:11:09.733Z,0
2022-08-01T02:11:29.738Z,0
2022-08-01T02:12:09.581Z,0
2022-08-01T02:12:09.923Z,0
2022-08-01T02:12:29.975Z,0
2022-08-01T02:12:50.042Z,0
2022-08-01T02:13:10.124Z,0
2022-08-01T02:13:30.170Z,0
2022-08-01T02:13:50.243Z,0
2022-08-01T02:14:10.329Z,0
2022-08-01T02:14:30.390Z,0
2022-08-01T02:14:50.442Z,0
2022-08-01T02:15:10.515Z,0
2022-08-01T02:15:30.569Z,0
2022-08-01T02:16:00.245Z,0
2022-08-01T02:16:10.819Z,0
2022-08-01T02:16:30.800Z,0
2022-08-01T02:16:50.841Z,0
2022-08-01T02:17:10.912Z,0
2022-08-01T02:17:30.993Z,0
2022-08-01T02:17:51.064Z,0
2022-08-01T02:18:11.121Z,0
2022-08-01T02:18:31.213Z,0
2022-08-01T02:18:51.284Z,0
2022-08-01T02:19:11.332Z,0
2022-08-01T02:19:31.416Z,0
2022-08-01T02:19:51.478Z,0
2022-08-01T02:20:11.533Z,0
2022-08-01T02:20:31.570Z,0
2022-08-01T02:20:53.031Z,0
2022-08-01T02:21:11.778Z,0
2022-08-01T02:21:31.761Z,0
2022-08-01T02:21:51.837Z,0
2022-08-01T02:22:11.899Z,0
2022-08-01T02:22:32.000Z,0
2022-08-01T02:22:52.046Z,0
2022-08-01T02:23:12.122Z,0
2022-08-01T02:23:32.183Z,0
2022-08-01T02:23:52.260Z,0
2022-08-01T02:24:12.304Z,0
2022-08-01T02:24:32.373Z,0
2022-08-01T02:24:52.489Z,0
2022-08-01T02:25:12.548Z,0
2022-08-01T02:25:32.599Z,0
2022-08-01T02:26:10.451Z,0
2022-08-01T02:26:12.803Z,0
2022-08-01T02:26:32.800Z,0
2022-08-01T02:26:52.900Z,0
2022-08-01T02:27:12.961Z,0
2022-08-01T02:27:33.061Z,0
2022-08-01T02:27:53.120Z,0
2022-08-01T02:28:13.202Z,0
2022-08-01T02:28:33.260Z,0
2022-08-01T02:28:53.316Z,0
2022-08-01T02:29:13.420Z,0
2022-08-01T02:29:33.489Z,0
2022-08-01T02:29:53.549Z,0
2022-08-01T02:30:13.613Z,0
2022-08-01T02:30:33.670Z,0
2022-08-01T02:30:53.731Z,0
2022-08-01T02:31:13.868Z,0
2022-08-01T02:31:33.856Z,0
2022-08-01T02:31:53.937Z,0
2022-08-01T02:32:13.996Z,0
2022-08-01T02:32:34.069Z,0
2022-08-01T02:32:54.105Z,0
2022-08-01T02:33:15.651Z,0
2022-08-01T02:33:34.234Z,0
2022-08-01T02:33:54.307Z,0
2022-08-01T02:34:14.345Z,0
2022-08-01T02:34:34.415Z,0
2022-08-01T02:34:54.494Z,0
2022-08-01T02:35:14.570Z,0
2022-08-01T02:35:34.661Z,0
2022-08-01T02:36:30.374Z,0
2022-08-01T02:36:31.691Z,0
2022-08-01T02:36:34.826Z,0
2022-08-01T02:36:54.870Z,0
2022-08-01T02:37:14.928Z,0
2022-08-01T02:37:34.990Z,0
2022-08-01T02:37:55.053Z,0
2022-08-01T02:38:15.129Z,0
2022-08-01T02:38:35.159Z,0
2022-08-01T02:38:55.238Z,0
2022-08-01T02:39:15.332Z,0
2022-08-01T02:39:35.354Z,0
2022-08-01T02:39:55.431Z,0
2022-08-01T02:40:15.479Z,0
2022-08-01T02:40:35.548Z,0
2022-08-01T02:40:55.651Z,0
2022-08-01T02:41:15.755Z,0
2022-08-01T02:41:35.764Z,0
2022-08-01T02:41:55.834Z,0
2022-08-01T02:42:15.906Z,0
2022-08-01T02:42:35.961Z,0
2022-08-01T02:42:56.050Z,0
2022-08-01T02:43:16.104Z,0
2022-08-01T02:43:36.177Z,0
2022-08-01T02:43:56.239Z,0
2022-08-01T02:44:16.295Z,0
2022-08-01T02:44:36.364Z,0
2022-08-01T02:44:56.402Z,0
2022-08-01T02:45:16.482Z,0
2022-08-01T02:45:36.529Z,0
2022-08-01T02:45:56.604Z,0
2022-08-01T02:46:16.729Z,0
2022-08-01T02:46:36.718Z,0
2022-08-01T02:46:56.800Z,0
2022-08-01T02:47:16.850Z,0
2022-08-01T02:47:36.895Z,0
2022-08-01T02:47:56.980Z,0
2022-08-01T02:48:17.030Z,0
2022-08-01T02:48:37.126Z,0
2022-08-01T02:48:57.300Z,0
2022-08-01T02:49:17.347Z,0
2022-08-01T02:49:37.574Z,0
2022-08-01T02:49:57.420Z,0
2022-08-01T02:50:17.478Z,0
2022-08-01T02:50:37.538Z,0
2022-08-01T02:50:57.611Z,0
2022-08-01T02:51:17.756Z,0
2022-08-01T02:51:37.757Z,0
2022-08-01T02:51:57.794Z,0
2022-08-01T02:52:17.865Z,0
2022-08-01T02:52:37.915Z,0
2022-08-01T02:52:58.012Z,0
2022-08-01T02:53:18.107Z,0
2022-08-01T02:53:38.992Z,0
2022-08-01T02:53:58.177Z,0
2022-08-01T02:54:18.276Z,0
2022-08-01T02:54:38.353Z,0
2022-08-01T02:54:58.408Z,0
2022-08-01T02:55:18.489Z,0
2022-08-01T02:55:38.543Z,0
2022-08-01T02:55:58.605Z,0
2022-08-01T02:56:18.777Z,0
2022-08-01T02:56:38.808Z,0
2022-08-01T02:56:58.888Z,0
2022-08-01T02:57:18.963Z,0
2022-08-01T02:57:51.865Z,0
2022-08-01T02:58:00.139Z,0
2022-08-01T02:58:19.174Z,0
2022-08-01T02:58:39.243Z,0
2022-08-01T02:58:59.292Z,0
2022-08-01T02:59:22.206Z,0
2022-08-01T02:59:41.259Z,0
2022-08-01T02:59:59.494Z,0
2022-08-01T03:00:19.561Z,0
2022-08-01T03:00:39.646Z,0
2022-08-01T03:00:59.721Z,0
2022-08-01T03:01:20.045Z,0
2022-08-01T03:01:41.963Z,0
2022-08-01T03:02:00.033Z,0
2022-08-01T03:02:19.992Z,0
2022-08-01T03:02:40.072Z,0
2022-08-01T03:03:00.176Z,0
2022-08-01T03:03:20.202Z,0
2022-08-01T03:03:40.255Z,0
2022-08-01T03:04:00.302Z,0
2022-08-01T03:04:20.366Z,0
2022-08-01T03:04:40.426Z,0
2022-08-01T03:05:00.469Z,0
2022-08-01T03:05:20.552Z,0
2022-08-01T03:05:40.619Z,0
2022-08-01T03:06:00.676Z,0
2022-08-01T03:06:20.825Z,0
2022-08-01T03:06:42.373Z,0
2022-08-01T03:07:00.850Z,0
2022-08-01T03:07:20.918Z,0
2022-08-01T03:07:41.007Z,0
2022-08-01T03:08:02.744Z,0
2022-08-01T03:08:21.170Z,0
2022-08-01T03:08:41.236Z,0
2022-08-01T03:09:01.298Z,0
2022-08-01T03:09:21.391Z,0
2022-08-01T03:09:41.444Z,0
2022-08-01T03:10:01.524Z,0
2022-08-01T03:10:21.589Z,0
2022-08-01T03:10:41.686Z,0
2022-08-01T03:11:01.772Z,0
2022-08-01T03:11:21.932Z,0
2022-08-01T03:11:41.925Z,0
2022-08-01T03:12:02.020Z,0
2022-08-01T03:12:22.049Z,0
2022-08-01T03:12:42.159Z,0
2022-08-01T03:13:02.227Z,0
2022-08-01T03:13:22.275Z,0
2022-08-01T03:13:42.331Z,0
2022-08-01T03:14:02.430Z,0
2022-08-01T03:14:22.494Z,0
2022-08-01T03:14:42.560Z,0
2022-08-01T03:15:02.607Z,0
2022-08-01T03:15:22.680Z,0
2022-08-01T03:15:42.734Z,0
2022-08-01T03:16:02.811Z,0
2022-08-01T03:16:23.000Z,0
2022-08-01T03:16:42.979Z,0
2022-08-01T03:17:03.026Z,0
2022-08-01T03:17:23.074Z,0
2022-08-01T03:17:43.157Z,0
2022-08-01T03:18:03.235Z,0
2022-08-01T03:18:23.282Z,0
2022-08-01T03:18:43.327Z,0
2022-08-01T03:19:03.413Z,0
2022-08-01T03:19:23.465Z,0
2022-08-01T03:19:43.537Z,0
2022-08-01T03:20:03.595Z,0
2022-08-01T03:20:23.665Z,0
2022-08-01T03:20:43.717Z,0
2022-08-01T03:21:03.782Z,0
2022-08-01T03:21:23.909Z,0
2022-08-01T03:21:43.895Z,0
2022-08-01T03:22:04.317Z,0
2022-08-01T03:22:24.053Z,0
2022-08-01T03:22:44.091Z,0
2022-08-01T03:23:04.169Z,0
2022-08-01T03:23:24.221Z,0
2022-08-01T03:23:44.306Z,0
2022-08-01T03:24:04.355Z,0
2022-08-01T03:24:24.434Z,0
2022-08-01T03:24:44.488Z,0
2022-08-01T03:25:04.574Z,0
2022-08-01T03:25:24.633Z,0
2022-08-01T03:25:44.693Z,0
2022-08-01T03:26:04.747Z,0
2022-08-01T03:26:24.883Z,0
2022-08-01T03:26:44.856Z,0
2022-08-01T03:27:04.923Z,0
2022-08-01T03:27:24.965Z,0
2022-08-01T03:27:45.035Z,0
2022-08-01T03:28:05.086Z,0
2022-08-01T03:28:25.136Z,0
2022-08-01T03:28:45.210Z,0
2022-08-01T03:29:05.291Z,0
2022-08-01T03:29:25.330Z,0
2022-08-01T03:29:45.401Z,0
2022-08-01T03:30:05.484Z,0
2022-08-01T03:30:25.555Z,0
2022-08-01T03:30:45.629Z,0
2022-08-01T03:31:05.709Z,0
2022-08-01T03:31:25.872Z,0
2022-08-01T03:31:45.890Z,0
2022-08-01T03:32:06.313Z,0
2022-08-01T03:32:26.020Z,0
2022-08-01T03:32:46.091Z,0
2022-08-01T03:33:06.158Z,0
2022-08-01T03:33:26.254Z,0
2022-08-01T03:33:46.315Z,0
2022-08-01T03:34:06.389Z,0
2022-08-01T03:34:26.454Z,0
2022-08-01T03:34:46.515Z,0
2022-08-01T03:35:06.593Z,0
2022-08-01T03:35:26.705Z,0
2022-08-01T03:35:46.795Z,0
2022-08-01T03:36:06.843Z,0
2022-08-01T03:36:26.960Z,0
2022-08-01T03:36:46.960Z,0
2022-08-01T03:37:07.001Z,0
2022-08-01T03:37:27.077Z,0
2022-08-01T03:38:13.529Z,0
2022-08-01T03:38:16.092Z,0
2022-08-01T03:38:27.257Z,0
2022-08-01T03:38:47.312Z,0
2022-08-01T03:39:07.413Z,0
2022-08-01T03:39:27.507Z,0
2022-08-01T03:39:47.567Z,0
2022-08-01T03:40:07.600Z,0
2022-08-01T03:40:27.667Z,0
2022-08-01T03:40:47.733Z,0
2022-08-01T03:41:07.798Z,0
2022-08-01T03:41:27.925Z,0
2022-08-01T03:41:47.918Z,0
2022-08-01T03:42:08.171Z,0
2022-08-01T03:42:28.081Z,0
2022-08-01T03:42:48.155Z,0
2022-08-01T03:43:08.205Z,0
2022-08-01T03:43:28.257Z,0
2022-08-01T03:43:48.328Z,0
2022-08-01T03:44:08.414Z,0
2022-08-01T03:44:28.440Z,0
2022-08-01T03:44:48.481Z,0
2022-08-01T03:45:08.550Z,0
2022-08-01T03:45:28.619Z,0
2022-08-01T03:45:48.729Z,0
2022-08-01T03:46:08.820Z,0
2022-08-01T03:46:28.963Z,0
2022-08-01T03:46:48.958Z,0
2022-08-01T03:47:09.004Z,0
2022-08-01T03:47:29.089Z,0
2022-08-01T03:47:49.155Z,0
2022-08-01T03:48:09.215Z,0
2022-08-01T03:48:29.275Z,0
2022-08-01T03:48:49.453Z,0
2022-08-01T03:49:09.452Z,0
2022-08-01T03:49:29.521Z,0
2022-08-01T03:49:49.517Z,0
2022-08-01T03:50:12.486Z,0
2022-08-01T03:50:29.660Z,0
2022-08-01T03:50:49.738Z,0
2022-08-01T03:51:09.821Z,0
2022-08-01T03:51:29.968Z,0
2022-08-01T03:51:49.967Z,0
2022-08-01T03:52:10.068Z,0
2022-08-01T03:52:30.113Z,0
2022-08-01T03:52:50.188Z,0
2022-08-01T03:53:10.247Z,0
2022-08-01T03:53:30.323Z,0
2022-08-01T03:53:50.386Z,0
2022-08-01T03:54:10.435Z,0
2022-08-01T03:54:30.467Z,0
2022-08-01T03:54:50.535Z,0
2022-08-01T03:55:10.606Z,0
2022-08-01T03:55:30.649Z,0
2022-08-01T03:55:50.750Z,0
2022-08-01T03:56:10.794Z,0
2022-08-01T03:56:30.938Z,0
2022-08-01T03:56:50.922Z,0
2022-08-01T03:57:23.352Z,0
2022-08-01T03:57:36.410Z,0
2022-08-01T03:57:51.161Z,0
2022-08-01T03:58:11.211Z,0
2022-08-01T03:58:31.304Z,0
2022-08-01T03:58:51.363Z,0
2022-08-01T03:59:11.427Z,0
2022-08-01T03:59:31.478Z,0
2022-08-01T03:59:51.566Z,0
2022-08-01T04:00:11.626Z,0
2022-08-01T04:00:31.671Z,0
2022-08-01T04:00:51.747Z,0
2022-08-01T04:01:15.282Z,0
2022-08-01T04:01:32.012Z,0
2022-08-01T04:01:51.993Z,0
2022-08-01T04:02:11.972Z,0
2022-08-01T04:02:32.029Z,0
2022-08-01T04:02:52.109Z,0
2022-08-01T04:03:12.147Z,0
2022-08-01T04:03:32.234Z,0
2022-08-01T04:03:52.291Z,0
2022-08-01T04:04:12.349Z,0
2022-08-01T04:04:32.398Z,0
2022-08-01T04:04:52.484Z,0
2022-08-01T04:05:12.554Z,0
2022-08-01T04:05:32.635Z,0
2022-08-01T04:05:52.699Z,0
2022-08-01T04:06:12.792Z,0
2022-08-01T04:06:32.926Z,0
2022-08-01T04:06:52.914Z,0
2022-08-01T04:07:12.969Z,0
2022-08-01T04:07:33.046Z,0
2022-08-01T04:07:53.127Z,0
2022-08-01T04:08:13.212Z,0
2022-08-01T04:08:33.293Z,0
2022-08-01T04:08:53.355Z,0
2022-08-01T04:09:14.011Z,0
2022-08-01T04:09:33.507Z,0
2022-08-01T04:09:53.569Z,0
2022-08-01T04:10:13.633Z,0
2022-08-01T04:10:33.685Z,0
2022-08-01T04:10:53.773Z,0
2022-08-01T04:11:13.821Z,0
2022-08-01T04:11:33.957Z,0
2022-08-01T04:11:53.940Z,0
2022-08-01T04:12:14.011Z,0
2022-08-01T04:12:34.069Z,0
2022-08-01T04:12:54.155Z,0
2022-08-01T04:13:14.252Z,0
2022-08-01T04:13:37.056Z,0
2022-08-01T04:13:54.426Z,0
2022-08-01T04:14:14.484Z,0.069
2022-08-01T04:14:34.551Z,0.07
2022-08-01T04:14:54.615Z,0.072
2022-08-01T04:15:14.669Z,0.073
2022-08-01T04:15:34.739Z,0.073
2022-08-01T04:15:54.816Z,0.072
2022-08-01T04:16:14.864Z,0.068
2022-08-01T04:16:34.987Z,0.067
2022-08-01T04:16:55.014Z,0.066
2022-08-01T04:17:15.064Z,0.063
2022-08-01T04:17:35.126Z,0.061
2022-08-01T04:17:55.223Z,0.061
2022-08-01T04:18:15.249Z,0.058
2022-08-01T04:18:35.316Z,0.055
2022-08-01T04:18:55.389Z,0.054
2022-08-01T04:19:15.473Z,0.053
2022-08-01T04:19:35.548Z,0.051
2022-08-01T04:19:55.586Z,0.05
2022-08-01T04:20:15.647Z,0.05
2022-08-01T04:20:35.717Z,0.049
2022-08-01T04:20:55.766Z,0.047
2022-08-01T04:21:15.824Z,0.046
2022-08-01T04:21:35.977Z,0.047
2022-08-01T04:21:55.999Z,0.047
2022-08-01T04:22:16.057Z,0.048
2022-08-01T04:22:37.424Z,0.05
2022-08-01T04:22:56.193Z,0.051
2022-08-01T04:23:16.236Z,0.054
2022-08-01T04:23:36.287Z,0.055
2022-08-01T04:23:56.375Z,0.059
2022-08-01T04:24:16.450Z,0.061
2022-08-01T04:24:36.523Z,0.061
2022-08-01T04:24:57.179Z,0.065
2022-08-01T04:25:16.628Z,0.067
2022-08-01T04:25:36.704Z,0.069
2022-08-01T04:25:56.752Z,0.073
2022-08-01T04:26:16.825Z,0.074
2022-08-01T04:26:36.982Z,0.079
2022-08-01T04:26:56.943Z,0.083
2022-08-01T04:27:16.988Z,0.086
2022-08-01T04:27:50.393Z,0.088
2022-08-01T04:27:57.135Z,0.089
2022-08-01T04:28:17.218Z,0.093
2022-08-01T04:28:37.260Z,0.109
2022-08-01T04:28:57.337Z,0.112
2022-08-01T04:29:17.412Z,0.116
2022-08-01T04:29:37.477Z,0.12
2022-08-01T04:29:57.567Z,0.121
2022-08-01T04:30:17.959Z,0.121
2022-08-01T04:30:37.722Z,0.122
2022-08-01T04:31:01.745Z,0.121
2022-08-01T04:31:17.842Z,0.123
2022-08-01T04:31:37.971Z,0.123
2022-08-01T04:31:57.999Z,0.121
2022-08-01T04:32:18.080Z,0.119
2022-08-01T04:32:38.175Z,0.116
2022-08-01T04:32:58.237Z,0.113
2022-08-01T04:33:18.338Z,0.113
2022-08-01T04:33:38.417Z,0.114
2022-08-01T04:33:58.489Z,0.116
2022-08-01T04:34:18.535Z,0.12
2022-08-01T04:34:38.619Z,0.123
2022-08-01T04:34:58.682Z,0.124
2022-08-01T04:35:22.500Z,0.129
2022-08-01T04:36:02.428Z,0.133
2022-08-01T04:36:03.758Z,0.13
2022-08-01T04:36:18.936Z,0.135
2022-08-01T04:36:39.092Z,0.135
2022-08-01T04:36:59.079Z,0.135
2022-08-01T04:37:19.150Z,0.136
2022-08-01T04:37:39.206Z,0.134
2022-08-01T04:37:59.362Z,0.134
2022-08-01T04:38:19.344Z,0.134
2022-08-01T04:38:39.434Z,0.133
2022-08-01T04:38:59.495Z,0.129
2022-08-01T04:39:19.553Z,0.129
2022-08-01T04:39:50.405Z,0.13
2022-08-01T04:39:59.710Z,0.129
2022-08-01T04:40:19.773Z,0.128
2022-08-01T04:40:39.859Z,0.126
2022-08-01T04:41:08.605Z,0.125
2022-08-01T04:41:19.959Z,0.121
2022-08-01T04:41:40.109Z,0.119
2022-08-01T04:42:00.093Z,0.119
2022-08-01T04:42:26.013Z,0.119
2022-08-01T04:42:40.222Z,0.114
2022-08-01T04:43:00.315Z,0.112
2022-08-01T04:43:20.400Z,0.111
2022-08-01T04:43:40.480Z,0.105
2022-08-01T04:44:00.537Z,0.102
2022-08-01T04:44:20.569Z,0.098
2022-08-01T04:44:40.641Z,0.093
2022-08-01T04:45:00.698Z,0.093
2022-08-01T04:45:20.768Z,0.093
2022-08-01T04:45:40.859Z,0.093
2022-08-01T04:46:00.923Z,0.09
2022-08-01T04:46:20.999Z,0.088
2022-08-01T04:46:41.159Z,0.088
2022-08-01T04:47:01.152Z,0.086
2022-08-01T04:47:21.201Z,0.084
2022-08-01T04:47:41.281Z,0.082
2022-08-01T04:48:01.356Z,0.079
2022-08-01T04:48:22.775Z,0.077
2022-08-01T04:48:41.482Z,0.075
2022-08-01T04:49:01.662Z,0.073
2022-08-01T04:49:21.733Z,0.073
2022-08-01T04:49:48.697Z,0.074
2022-08-01T04:50:01.808Z,0.074
2022-08-01T04:50:21.907Z,0.076
2022-08-01T04:50:41.972Z,0.078
2022-08-01T04:51:02.049Z,0.081
2022-08-01T04:51:22.114Z,0.084